Time;durP1;ratioP1;P1;durP2;ratioP2;P2;SDS_P1;SDS_P2;PMS_P1;PMS_P2;Temp;Humidity;BMP_temperature;BMP_pressure;BME280_temperature;BME280_humidity;BME280_pressure;Samples;Min_cycle;Max_cycle;Signal;HPM_P1;HPM_P2
2021/12/30 00:00:34;;;;;;;0.95;0.52;;;;;;;6.48;100.00;98192.28;5075236;28;20056;-78
2021/12/30 00:03:00;;;;;;;0.00;0.00;;;;;;;6.49;100.00;98188.59;5068875;28;20061;-78
2021/12/30 00:05:25;;;;;;;0.00;0.00;;;;;;;6.49;100.00;98188.59;5060631;28;20052;-77
2021/12/30 00:07:51;;;;;;;0.00;0.00;;;;;;;6.47;100.00;98193.34;5058947;28;20028;-76
2021/12/30 00:10:16;;;;;;;0.17;0.17;;;;;;;6.48;100.00;98202.91;5073134;28;20024;-79
2021/12/30 00:12:42;;;;;;;1.65;0.73;;;;;;;6.44;100.00;98212.50;5085472;28;20037;-83
2021/12/30 00:15:09;;;;;;;0.10;0.10;;;;;;;6.46;100.00;98215.66;5054597;28;20029;-83
2021/12/30 00:17:34;;;;;;;0.00;0.00;;;;;;;6.42;100.00;98207.47;5071979;28;20268;-83
2021/12/30 00:20:01;;;;;;;0.00;0.00;;;;;;;6.45;100.00;98222.84;5067956;28;20648;-87
2021/12/30 00:22:28;;;;;;;0.00;0.00;;;;;;;6.36;100.00;98208.50;5059117;28;20036;-81
2021/12/30 00:24:53;;;;;;;0.10;0.10;;;;;;;6.34;100.00;98205.34;5073779;28;20457;-81
2021/12/30 00:27:19;;;;;;;0.00;0.00;;;;;;;6.38;100.00;98206.41;5071816;28;20024;-84
2021/12/30 00:29:45;;;;;;;0.30;0.30;;;;;;;6.36;100.00;98217.28;5071851;28;20025;-81
2021/12/30 00:32:10;;;;;;;0.10;0.10;;;;;;;6.34;100.00;98222.06;5072068;28;20032;-82
2021/12/30 00:34:36;;;;;;;0.90;0.90;;;;;;;6.36;100.00;98227.91;5072028;28;20035;-82
2021/12/30 00:37:01;;;;;;;0.00;0.00;;;;;;;6.34;100.00;98222.06;5080637;28;20032;-83
2021/12/30 00:39:27;;;;;;;0.00;0.00;;;;;;;6.32;100.00;98224.19;5097842;28;20034;-86
2021/12/30 00:41:52;;;;;;;0.00;0.00;;;;;;;6.32;100.00;98218.09;5071753;28;20028;-85
2021/12/30 00:44:18;;;;;;;0.10;0.10;;;;;;;6.33;100.00;98225.00;5071766;28;20112;-84
2021/12/30 00:46:43;;;;;;;0.88;0.80;;;;;;;6.28;100.00;98214.41;5077387;28;20055;-84
2021/12/30 00:49:09;;;;;;;0.32;0.32;;;;;;;6.32;100.00;98224.19;5077311;28;20099;-84
2021/12/30 00:51:35;;;;;;;0.17;0.17;;;;;;;6.31;100.00;98219.16;5075261;28;20037;-82
2021/12/30 00:54:01;;;;;;;0.05;0.05;;;;;;;6.32;100.00;98223.41;5090043;28;20051;-83
2021/12/30 00:56:26;;;;;;;0.05;0.05;;;;;;;6.35;100.00;98228.97;5089642;28;20472;-80
2021/12/30 00:58:53;;;;;;;0.00;0.00;;;;;;;6.25;100.00;98216.50;5089441;28;20024;-81
2021/12/30 01:01:19;;;;;;;0.85;0.85;;;;;;;6.33;100.00;98230.31;5089718;28;20036;-81
2021/12/30 01:03:45;;;;;;;0.00;0.00;;;;;;;6.33;100.00;98231.09;5072789;28;20038;-82
2021/12/30 01:06:10;;;;;;;0.73;0.73;;;;;;;6.34;100.00;98231.91;5072573;28;20127;-80
2021/12/30 01:08:36;;;;;;;0.05;0.05;;;;;;;6.29;100.00;98230.06;5089274;28;20033;-88
2021/12/30 01:11:06;;;;;;;0.00;0.00;;;;;;;6.33;100.00;98220.47;5072479;28;20029;-85
2021/12/30 01:13:32;;;;;;;0.00;0.00;;;;;;;6.36;100.00;98238.53;5072838;28;20533;-85
2021/12/30 01:16:01;;;;;;;0.05;0.05;;;;;;;6.28;100.00;98222.38;5072472;28;20060;-87
2021/12/30 01:18:35;;;;;;;;;;;;;;;6.32;100.00;98237.47;5073010;28;20124;-89
2021/12/30 01:21:01;;;;;;;1.20;1.13;;;;;;;6.22;100.00;98232.97;5072720;28;19916;-85
2021/12/30 01:23:27;;;;;;;0.00;0.00;;;;;;;6.21;100.00;98239.38;5089219;28;20040;-85
2021/12/30 01:25:55;;;;;;;1.02;1.02;;;;;;;6.21;100.00;98238.56;5089153;28;20032;-83
2021/12/30 01:28:21;;;;;;;0.00;0.00;;;;;;;6.20;100.00;98237.75;5072490;28;20033;-82
2021/12/30 01:30:47;;;;;;;0.15;0.15;;;;;;;6.17;100.00;98246.25;5089113;28;20105;-84
2021/12/30 01:33:13;;;;;;;4.40;1.05;;;;;;;6.15;100.00;98243.09;5088890;28;20029;-87
2021/12/30 01:35:38;;;;;;;0.00;0.00;;;;;;;6.12;100.00;98240.16;5072457;28;20081;-86
2021/12/30 01:38:05;;;;;;;0.20;0.20;;;;;;;6.08;100.00;98238.03;5088910;28;20039;-84
2021/12/30 01:40:32;;;;;;;0.00;0.00;;;;;;;6.12;100.00;98248.91;5089291;28;20040;-84
2021/12/30 01:42:58;;;;;;;0.47;0.47;;;;;;;6.05;100.00;98237.75;5089083;28;20021;-85
2021/12/30 01:45:23;;;;;;;0.32;0.32;;;;;;;6.04;100.00;98242.28;5072032;28;20479;-83
2021/12/30 01:47:52;;;;;;;0.00;0.00;;;;;;;6.05;100.00;98245.72;5073266;28;20074;-84
2021/12/30 01:50:18;;;;;;;;;;;;;;;6.07;100.00;98249.69;5075565;28;20036;-84
2021/12/30 01:52:44;;;;;;;2.20;1.95;;;;;;;6.00;100.00;98249.16;5074159;28;19916;-84
2021/12/30 01:55:12;;;;;;;0.00;0.00;;;;;;;5.98;100.00;98248.63;5066991;28;20025;-85
2021/12/30 01:57:38;;;;;;;0.45;0.45;;;;;;;5.97;100.00;98252.34;5059845;28;20035;-85
2021/12/30 02:00:06;;;;;;;0.30;0.30;;;;;;;5.92;100.00;98258.44;5061157;28;20561;-84
2021/12/30 02:02:32;;;;;;;0.00;0.00;;;;;;;5.84;100.00;98244.91;5053124;28;20032;-84
2021/12/30 02:04:58;;;;;;;0.32;0.32;;;;;;;5.83;100.00;98249.41;5071140;28;20056;-84
2021/12/30 02:07:23;;;;;;;1.20;0.98;;;;;;;5.84;100.00;98252.88;5053919;28;20517;-84
2021/12/30 02:09:50;;;;;;;1.15;1.10;;;;;;;5.82;100.00;98263.72;5072928;28;20022;-86
2021/12/30 02:12:15;;;;;;;0.75;0.75;;;;;;;5.82;100.00;98261.06;5062539;28;20056;-86
2021/12/30 02:14:41;;;;;;;0.00;0.00;;;;;;;5.75;100.00;98253.38;5057407;28;20082;-84
2021/12/30 02:17:07;;;;;;;0.20;0.20;;;;;;;5.72;100.00;98255.75;5069307;28;20479;-84
2021/12/30 02:19:34;;;;;;;0.00;0.00;;;;;;;5.73;100.00;98262.66;5072307;28;20016;-84
2021/12/30 02:21:59;;;;;;;0.00;0.00;;;;;;;5.73;100.00;98273.28;5069855;28;20024;-85
2021/12/30 02:24:25;;;;;;;0.00;0.00;;;;;;;5.73;100.00;98268.75;5057667;28;20039;-82
2021/12/30 02:26:51;;;;;;;0.00;0.00;;;;;;;5.73;100.00;98274.06;5091372;28;20088;-81
2021/12/30 02:29:18;;;;;;;0.00;0.00;;;;;;;5.70;100.00;98268.47;5071057;28;20051;-81
2021/12/30 02:31:43;;;;;;;0.00;0.00;;;;;;;5.65;100.00;98263.97;5061259;28;20042;-78
2021/12/30 02:34:09;;;;;;;0.00;0.00;;;;;;;5.66;100.00;98276.16;5072636;28;20456;-79
2021/12/30 02:36:36;;;;;;;0.43;0.43;;;;;;;5.64;100.00;98269.53;5072925;28;20028;-78
2021/12/30 02:39:11;;;;;;;0.08;0.08;;;;;;;5.67;100.00;98269.81;5073943;28;20032;-78
2021/12/30 02:41:38;;;;;;;0.00;0.00;;;;;;;5.68;100.00;98278.56;5053109;28;20461;-78
2021/12/30 02:44:06;;;;;;;0.30;0.30;;;;;;;5.70;100.00;98279.09;5071062;28;21805;-80
2021/12/30 02:46:32;;;;;;;1.08;0.40;;;;;;;5.60;100.00;98266.59;5053442;28;20070;-80
2021/12/30 02:48:59;;;;;;;0.00;0.00;;;;;;;5.75;100.00;98285.22;5054667;28;20040;-81
2021/12/30 02:51:25;;;;;;;0.00;0.00;;;;;;;5.75;100.00;98292.38;5083049;28;20032;-81
2021/12/30 02:53:51;;;;;;;0.00;0.00;;;;;;;5.72;100.00;98295.56;5065193;28;20043;-84
2021/12/30 02:56:17;;;;;;;0.00;0.00;;;;;;;5.74;100.00;98290.78;5069704;28;20521;-80
2021/12/30 02:58:43;;;;;;;0.00;0.00;;;;;;;5.67;100.00;98282.28;5052932;28;20032;-80
2021/12/30 03:01:18;;;;;;;0.00;0.00;;;;;;;5.73;100.00;98295.28;5059566;28;20117;-82
2021/12/30 03:03:44;;;;;;;0.00;0.00;;;;;;;5.74;100.00;98302.19;5053031;28;20111;-79
2021/12/30 03:06:13;;;;;;;0.00;0.00;;;;;;;5.80;100.00;98303.00;5052670;28;20431;-79
2021/12/30 03:08:39;;;;;;;0.00;0.00;;;;;;;5.81;100.00;98311.75;5067021;28;20032;-83
2021/12/30 03:11:06;;;;;;;0.00;0.00;;;;;;;5.80;100.00;98310.97;5067615;28;20089;-79
2021/12/30 03:13:32;;;;;;;0.82;0.82;;;;;;;5.77;100.00;98314.94;5052742;28;20121;-80
2021/12/30 03:16:03;;;;;;;0.00;0.00;;;;;;;5.77;100.00;98308.81;5066035;28;20032;-83
2021/12/30 03:18:34;;;;;;;0.00;0.00;;;;;;;5.71;100.00;98296.59;5072789;28;20039;-81
2021/12/30 03:21:02;;;;;;;0.00;0.00;;;;;;;5.75;100.00;98303.78;5056646;28;20086;-81
2021/12/30 03:23:27;;;;;;;0.00;0.00;;;;;;;5.74;100.00;98307.50;5071164;28;20471;-81
2021/12/30 03:25:53;;;;;;;0.00;0.00;;;;;;;5.68;100.00;98302.44;5061845;28;20035;-83
2021/12/30 03:28:19;;;;;;;0.00;0.00;;;;;;;5.69;100.00;98304.03;5072167;28;20031;-82
2021/12/30 03:30:45;;;;;;;0.00;0.00;;;;;;;5.72;100.00;98306.94;5073474;28;20076;-84
2021/12/30 03:33:10;;;;;;;0.00;0.00;;;;;;;5.73;100.00;98319.16;5082681;28;20454;-84
2021/12/30 03:35:36;;;;;;;0.03;0.03;;;;;;;5.69;100.00;98312.78;5082295;28;20043;-83
2021/12/30 03:38:03;;;;;;;0.00;0.00;;;;;;;5.75;100.00;98321.56;5060620;28;20031;-83
2021/12/30 03:40:28;;;;;;;0.00;0.00;;;;;;;5.73;100.00;98326.34;5066109;28;20020;-82
2021/12/30 03:42:54;;;;;;;0.00;0.00;;;;;;;5.71;100.00;98318.66;5070134;28;20029;-84
2021/12/30 03:45:21;;;;;;;0.00;0.00;;;;;;;5.70;100.00;98321.53;5059716;28;20020;-82
2021/12/30 03:47:49;;;;;;;0.00;0.00;;;;;;;5.74;100.00;98338.56;5075534;28;20106;-84
2021/12/30 03:50:20;;;;;;;0.00;0.00;;;;;;;5.72;100.00;98338.78;5063404;28;20167;-84
2021/12/30 03:52:51;;;;;;;0.00;0.00;;;;;;;5.63;100.00;98329.75;5064840;28;20037;-83
2021/12/30 03:55:18;;;;;;;0.00;0.00;;;;;;;5.61;100.00;98337.97;5058917;28;20021;-80
2021/12/30 03:57:44;;;;;;;0.00;0.00;;;;;;;5.54;100.00;98328.66;5057573;28;20033;-81
2021/12/30 04:00:11;;;;;;;0.00;0.00;;;;;;;5.60;100.00;98354.13;5060830;28;20032;-80
2021/12/30 04:02:37;;;;;;;0.00;0.00;;;;;;;5.57;100.00;98354.69;5073662;28;20418;-84
2021/12/30 04:05:03;;;;;;;0.00;0.00;;;;;;;5.29;100.00;98330.16;5072326;28;20124;-81
2021/12/30 04:07:28;;;;;;;0.00;0.00;;;;;;;5.40;100.00;98350.34;5064014;28;20039;-84
2021/12/30 04:09:54;;;;;;;0.00;0.00;;;;;;;5.46;100.00;98375.06;5066563;28;20029;-84
2021/12/30 04:12:19;;;;;;;0.00;0.00;;;;;;;5.42;100.00;98377.41;5089588;28;20028;-83
2021/12/30 04:14:45;;;;;;;0.00;0.00;;;;;;;5.49;100.00;98389.66;5069423;28;20477;-82
2021/12/30 04:17:10;;;;;;;0.00;0.00;;;;;;;5.38;100.00;98388.78;5048855;28;20028;-80
2021/12/30 04:19:36;;;;;;;0.00;0.00;;;;;;;5.39;100.00;98393.03;5059497;28;20545;-81
2021/12/30 04:22:01;;;;;;;0.00;0.00;;;;;;;5.37;100.00;98400.44;5064510;28;20021;-81
2021/12/30 04:24:27;;;;;;;0.00;0.00;;;;;;;5.32;100.00;98395.91;5066482;28;20415;-83
2021/12/30 04:26:52;;;;;;;0.00;0.00;;;;;;;5.34;100.00;98404.41;5062486;28;20112;-80
2021/12/30 04:29:19;;;;;;;0.00;0.00;;;;;;;5.35;100.00;98410.53;5070715;28;20028;-82
2021/12/30 04:31:45;;;;;;;0.00;0.00;;;;;;;5.36;100.00;98417.41;5063903;28;20021;-83
2021/12/30 04:34:12;;;;;;;0.00;0.00;;;;;;;5.34;100.00;98415.03;5051652;28;20033;-82
2021/12/30 04:36:39;;;;;;;0.00;0.00;;;;;;;5.31;100.00;98417.38;5066872;28;20028;-82
2021/12/30 04:39:05;;;;;;;2.05;1.45;;;;;;;5.33;100.00;98431.19;5090849;28;20043;-82
2021/12/30 04:41:30;;;;;;;0.00;0.00;;;;;;;5.33;100.00;98437.28;5051576;28;20481;-83
2021/12/30 04:43:56;;;;;;;0.00;0.00;;;;;;;5.33;100.00;98428.53;5071013;28;20111;-83
2021/12/30 04:46:21;;;;;;;0.00;0.00;;;;;;;5.25;100.00;98429.84;5070114;28;20060;-82
2021/12/30 04:48:47;;;;;;;0.00;0.00;;;;;;;5.26;100.00;98439.34;5069249;28;20131;-86
2021/12/30 04:51:13;;;;;;;0.00;0.00;;;;;;;5.20;100.00;98446.50;5060935;28;20038;-83
2021/12/30 04:53:39;;;;;;;0.08;0.08;;;;;;;5.17;100.00;98456.81;5071626;28;20074;-84
2021/12/30 04:56:05;;;;;;;0.00;0.00;;;;;;;5.10;100.00;98449.06;5070990;28;20032;-78
2021/12/30 04:58:30;;;;;;;0.00;0.00;;;;;;;5.05;100.00;98460.44;5052641;28;20105;-81
2021/12/30 05:00:56;;;;;;;0.00;0.00;;;;;;;5.00;100.00;98468.34;5051341;28;20472;-84
2021/12/30 05:03:22;;;;;;;0.00;0.00;;;;;;;4.91;100.00;98465.38;5061006;28;20036;-82
2021/12/30 05:05:50;;;;;;;0.00;0.00;;;;;;;4.93;100.00;98479.16;5052598;28;20040;-86
2021/12/30 05:08:17;;;;;;;;;;;;;;;4.93;100.00;98478.34;5071021;28;20115;-84
2021/12/30 05:10:43;;;;;;;0.00;0.00;;;;;;;4.84;100.00;98478.03;5070991;28;19917;-81
2021/12/30 05:13:09;;;;;;;0.00;0.00;;;;;;;4.75;100.00;98479.56;5069756;28;20031;-81
2021/12/30 05:15:36;;;;;;;0.00;0.00;;;;;;;4.84;100.00;98496.56;5067092;28;20376;-83
2021/12/30 05:18:03;;;;;;;0.00;0.00;;;;;;;4.74;100.00;98478.72;5065549;28;20032;-84
2021/12/30 05:20:29;;;;;;;0.00;0.00;;;;;;;4.78;100.00;98493.06;5058186;28;20101;-85
2021/12/30 05:22:55;;;;;;;0.00;0.00;;;;;;;4.71;100.00;98491.69;5070984;28;20426;-82
2021/12/30 05:25:21;;;;;;;0.00;0.00;;;;;;;4.81;100.00;98508.47;5059110;28;20496;-81
2021/12/30 05:27:49;;;;;;;0.00;0.00;;;;;;;4.74;100.00;98507.88;5050937;28;20025;-82
2021/12/30 05:30:15;;;;;;;0.00;0.00;;;;;;;4.82;100.00;98527.81;5050519;28;20447;-81
2021/12/30 05:32:41;;;;;;;0.00;0.00;;;;;;;4.80;100.00;98514.03;5064774;28;20036;-82
2021/12/30 05:35:09;;;;;;;0.00;0.00;;;;;;;4.84;100.00;98527.56;5070067;28;20113;-84
2021/12/30 05:37:35;;;;;;;0.00;0.00;;;;;;;4.76;100.00;98523.50;5051066;28;20203;-84
2021/12/30 05:40:01;;;;;;;0.00;0.00;;;;;;;4.56;100.00;98495.00;5050570;28;20036;-82
2021/12/30 05:42:26;;;;;;;0.00;0.00;;;;;;;4.72;100.00;98544.41;5058648;28;20028;-84
2021/12/30 05:44:53;;;;;;;0.00;0.00;;;;;;;4.72;100.00;98538.31;5069005;28;20067;-80
2021/12/30 05:47:19;;;;;;;0.00;0.00;;;;;;;4.70;100.00;98546.53;5060561;28;20024;-83
2021/12/30 05:49:44;;;;;;;0.00;0.00;;;;;;;4.63;100.00;98548.56;5050685;28;20041;-84
2021/12/30 05:52:11;;;;;;;0.00;0.00;;;;;;;4.48;100.00;98528.81;5061159;28;20062;-83
2021/12/30 05:54:36;;;;;;;0.00;0.00;;;;;;;4.61;100.00;98554.13;5068223;28;20071;-82
2021/12/30 05:57:02;;;;;;;0.28;0.28;;;;;;;4.58;100.00;98561.75;5049997;28;20071;-82
2021/12/30 05:59:28;;;;;;;0.43;0.43;;;;;;;4.56;100.00;98566.50;5050404;28;20067;-83
2021/12/30 06:01:53;;;;;;;0.00;0.00;;;;;;;4.62;100.00;98579.53;5058213;28;20483;-82
2021/12/30 06:04:19;;;;;;;0.00;0.00;;;;;;;4.57;100.00;98571.53;5065673;28;20028;-82
2021/12/30 06:06:44;;;;;;;0.00;0.00;;;;;;;4.58;100.00;98580.28;5057887;28;20554;-81
2021/12/30 06:09:10;;;;;;;0.00;0.00;;;;;;;4.56;100.00;98585.03;5067921;28;20044;-81
2021/12/30 06:11:36;;;;;;;0.00;0.00;;;;;;;4.59;100.00;98590.63;5050653;28;20024;-82
2021/12/30 06:14:02;;;;;;;2.08;1.02;;;;;;;4.53;100.00;98590.81;5052578;28;20044;-84
2021/12/30 06:16:27;;;;;;;0.00;0.00;;;;;;;4.58;100.00;98602.28;5069872;28;20040;-84
2021/12/30 06:18:53;;;;;;;0.00;0.00;;;;;;;4.58;100.00;98599.63;5069502;28;20029;-85
2021/12/30 06:21:18;;;;;;;0.00;0.00;;;;;;;4.62;100.00;98613.97;5065682;28;20048;-85
2021/12/30 06:23:44;;;;;;;0.00;0.00;;;;;;;4.60;100.00;98618.72;5059752;28;20041;-85
2021/12/30 06:26:09;;;;;;;0.00;0.00;;;;;;;4.51;100.00;98614.88;5055527;28;20033;-80
2021/12/30 06:28:35;;;;;;;0.00;0.00;;;;;;;4.52;100.00;98620.97;5066201;28;20479;-83
2021/12/30 06:31:00;;;;;;;0.00;0.00;;;;;;;4.46;100.00;98625.44;5069766;28;20713;-79
2021/12/30 06:33:25;;;;;;;0.90;0.90;;;;;;;4.50;100.00;98637.13;5069416;28;20029;-81
2021/12/30 06:35:51;;;;;;;0.63;0.55;;;;;;;4.51;100.00;98640.59;5068694;28;20036;-80
2021/12/30 06:38:16;;;;;;;0.00;0.00;;;;;;;4.47;100.00;98643.72;5049523;28;20036;-78
2021/12/30 06:40:42;;;;;;;0.00;0.00;;;;;;;4.49;100.00;98654.88;5059305;28;20056;-80
2021/12/30 06:43:09;;;;;;;0.00;0.00;;;;;;;4.43;100.00;98645.25;5069402;28;20028;-81
2021/12/30 06:45:34;;;;;;;0.00;0.00;;;;;;;4.46;100.00;98651.91;5056851;28;20033;-81
2021/12/30 06:48:00;;;;;;;0.00;0.00;;;;;;;4.45;100.00;98666.19;5049944;28;20037;-81
2021/12/30 06:50:30;;;;;;;0.00;0.00;;;;;;;4.44;100.00;98662.75;5066899;28;20035;-79
2021/12/30 06:52:56;;;;;;;0.00;0.00;;;;;;;4.48;100.00;98673.66;5055642;28;20028;-79
2021/12/30 06:55:21;;;;;;;0.00;0.00;;;;;;;4.52;100.00;98680.06;5053278;28;20085;-82
2021/12/30 06:57:47;;;;;;;0.00;0.00;;;;;;;4.52;100.00;98679.22;5052263;28;20391;-84
2021/12/30 07:00:13;;;;;;;0.00;0.00;;;;;;;4.51;100.00;98691.69;5057314;28;20424;-84
2021/12/30 07:02:41;;;;;;;0.00;0.00;;;;;;;4.49;100.00;98694.59;5052752;28;20044;-83
2021/12/30 07:05:07;;;;;;;0.00;0.00;;;;;;;4.48;100.00;98695.63;5053406;28;20475;-80
2021/12/30 07:07:33;;;;;;;0.00;0.00;;;;;;;4.53;100.00;98696.72;5063021;28;20050;-78
2021/12/30 07:09:58;;;;;;;0.00;0.00;;;;;;;4.51;100.00;98706.78;5076587;28;20119;-78
2021/12/30 07:12:24;;;;;;;0.00;0.00;;;;;;;4.48;100.00;98705.44;5075541;28;20405;-78
2021/12/30 07:14:49;;;;;;;0.00;0.00;;;;;;;4.50;100.00;98711.25;5057933;28;20021;-78
2021/12/30 07:17:15;;;;;;;0.00;0.00;;;;;;;4.54;100.00;98719.53;5057708;28;20032;-80
2021/12/30 07:19:41;;;;;;;0.10;0.10;;;;;;;4.58;100.00;98729.41;5064980;28;20047;-80
2021/12/30 07:22:06;;;;;;;0.20;0.20;;;;;;;4.55;100.00;98729.06;5075875;28;20410;-82
2021/12/30 07:24:31;;;;;;;0.10;0.10;;;;;;;4.58;100.00;98734.69;5074366;28;20410;-81
2021/12/30 07:26:57;;;;;;;0.00;0.00;;;;;;;4.59;100.00;98738.94;5068543;28;20039;-81
2021/12/30 07:29:22;;;;;;;0.00;0.00;;;;;;;4.57;100.00;98743.69;5076308;28;20024;-79
2021/12/30 07:31:48;;;;;;;0.00;0.00;;;;;;;4.59;100.00;98748.72;5076616;28;20038;-82
2021/12/30 07:34:14;;;;;;;0.20;0.20;;;;;;;4.65;100.00;98751.22;5060079;28;20119;-81
2021/12/30 07:36:39;;;;;;;0.00;0.00;;;;;;;4.56;100.00;98746.56;5056645;28;20119;-80
2021/12/30 07:39:06;;;;;;;0.00;0.00;;;;;;;4.62;100.00;98748.25;5062915;28;20376;-82
2021/12/30 07:41:31;;;;;;;0.00;0.00;;;;;;;4.63;100.00;98763.09;5093078;28;20059;-83
2021/12/30 07:43:57;;;;;;;0.00;0.00;;;;;;;4.58;100.00;98761.19;5074623;28;20440;-81
2021/12/30 07:46:22;;;;;;;0.00;0.00;;;;;;;4.59;100.00;98761.97;5091077;28;20039;-79
2021/12/30 07:48:48;;;;;;;0.00;0.00;;;;;;;4.61;100.00;98768.66;5074993;28;20469;-79
2021/12/30 07:51:13;;;;;;;0.00;0.00;;;;;;;4.61;100.00;98765.19;5062529;28;20032;-79
2021/12/30 07:53:40;;;;;;;0.00;0.00;;;;;;;4.61;100.00;98765.19;5056057;28;20029;-80
2021/12/30 07:56:06;;;;;;;0.00;0.00;;;;;;;4.65;100.00;98772.41;5056869;28;20410;-80
2021/12/30 07:58:32;;;;;;;0.00;0.00;;;;;;;4.65;100.00;98777.69;5075861;28;20032;-83
2021/12/30 08:00:57;;;;;;;0.00;0.00;;;;;;;4.65;100.00;98788.28;5059670;28;20119;-83
2021/12/30 08:03:24;;;;;;;0.00;0.00;;;;;;;4.68;100.00;98791.50;5065261;28;20085;-84
2021/12/30 08:05:49;;;;;;;0.00;0.00;;;;;;;4.68;100.00;98788.88;5064133;28;20033;-82
2021/12/30 08:08:15;;;;;;;0.00;0.00;;;;;;;4.69;100.00;98793.91;5059048;28;20029;-83
2021/12/30 08:10:40;;;;;;;0.00;0.00;;;;;;;4.66;100.00;98794.38;5075224;28;20032;-81
2021/12/30 08:13:06;;;;;;;0.00;0.00;;;;;;;4.69;100.00;98806.34;5064078;28;20020;-81
2021/12/30 08:15:31;;;;;;;0.00;0.00;;;;;;;4.68;100.00;98808.19;5073878;28;20027;-82
2021/12/30 08:17:58;;;;;;;0.00;0.00;;;;;;;4.72;100.00;98811.94;5067855;28;20036;-80
2021/12/30 08:20:24;;;;;;;0.00;0.00;;;;;;;4.76;100.00;98815.75;5055300;28;20062;-81
2021/12/30 08:22:51;;;;;;;0.00;0.00;;;;;;;4.73;100.00;98813.56;5071282;28;20123;-77
2021/12/30 08:25:18;;;;;;;0.00;0.00;;;;;;;4.77;100.00;98820.00;5067796;28;20499;-76
2021/12/30 08:27:44;;;;;;;0.00;0.00;;;;;;;4.78;100.00;98818.94;5069900;28;20498;-74
2021/12/30 08:30:13;;;;;;;0.10;0.10;;;;;;;4.79;99.85;98825.03;5075214;28;20491;-74
2021/12/30 08:32:40;;;;;;;0.00;0.00;;;;;;;4.84;100.00;98834.91;5055455;28;20039;-76
2021/12/30 08:35:07;;;;;;;0.00;0.00;;;;;;;4.89;100.00;98837.63;5086606;28;20024;-74
2021/12/30 08:37:33;;;;;;;0.00;0.00;;;;;;;4.88;100.00;98831.53;5075083;28;20024;-74
2021/12/30 08:40:01;;;;;;;0.00;0.00;;;;;;;4.81;100.00;98820.31;5078376;28;20115;-75
2021/12/30 08:42:28;;;;;;;0.00;0.00;;;;;;;4.90;100.00;98844.53;5054605;28;20020;-74
2021/12/30 08:44:56;;;;;;;0.03;0.03;;;;;;;4.71;100.00;98809.56;5056156;28;20020;-76
2021/12/30 08:47:23;;;;;;;0.00;0.00;;;;;;;4.92;100.00;98845.09;5070456;28;20157;-75
2021/12/30 08:49:49;;;;;;;0.00;0.00;;;;;;;4.96;100.00;98852.31;5070266;28;20312;-79
2021/12/30 08:52:19;;;;;;;0.00;0.00;;;;;;;4.96;100.00;98843.56;5075067;28;20110;-77
2021/12/30 08:54:47;;;;;;;0.28;0.28;;;;;;;5.05;100.00;98847.38;5072473;28;20077;-77
2021/12/30 08:57:14;;;;;;;0.30;0.30;;;;;;;5.09;100.00;98845.88;5073885;28;20036;-77
2021/12/30 08:59:39;;;;;;;0.00;0.00;;;;;;;5.10;100.00;98838.72;5074967;28;20407;-80
2021/12/30 09:02:07;;;;;;;0.15;0.15;;;;;;;5.10;100.00;98838.72;5074628;28;20031;-82
2021/12/30 09:04:33;;;;;;;0.10;0.10;;;;;;;5.15;100.00;98844.09;5054820;28;20017;-82
2021/12/30 09:06:59;;;;;;;0.00;0.00;;;;;;;5.17;100.00;98849.94;5069548;28;20483;-81
2021/12/30 09:09:24;;;;;;;0.10;0.10;;;;;;;5.17;100.00;98851.81;5074419;28;20408;-79
2021/12/30 09:11:50;;;;;;;0.00;0.00;;;;;;;5.04;100.00;98835.22;5075215;28;20036;-81
2021/12/30 09:14:16;;;;;;;0.00;0.00;;;;;;;5.17;100.00;98854.44;5074562;28;20032;-78
2021/12/30 09:16:42;;;;;;;0.00;0.00;;;;;;;5.17;100.00;98860.53;5074671;28;20020;-78
2021/12/30 09:19:08;;;;;;;0.00;0.00;;;;;;;5.19;100.00;98855.00;5074498;28;20120;-81
2021/12/30 09:21:41;;;;;;;0.00;0.00;;;;;;;5.21;100.00;98856.38;5074287;28;20043;-76
2021/12/30 09:24:08;;;;;;;0.00;0.00;;;;;;;5.26;100.00;98863.56;5092466;28;20036;-79
2021/12/30 09:26:34;;;;;;;0.00;0.00;;;;;;;5.25;100.00;98873.38;5074226;28;20055;-77
2021/12/30 09:29:00;;;;;;;0.00;0.00;;;;;;;5.25;100.00;98859.34;5072053;28;20067;-73
2021/12/30 09:31:28;;;;;;;0.00;0.00;;;;;;;5.37;100.00;98864.50;5084280;28;20020;-77
2021/12/30 09:33:54;;;;;;;0.00;0.00;;;;;;;5.43;100.00;98874.13;5058562;28;20436;-77
2021/12/30 09:36:19;;;;;;;0.35;0.35;;;;;;;5.44;100.00;98870.44;5072897;28;20054;-78
2021/12/30 09:38:45;;;;;;;0.00;0.00;;;;;;;5.48;100.00;98862.78;5074196;28;20479;-77
2021/12/30 09:41:10;;;;;;;0.00;0.00;;;;;;;5.53;100.00;98870.81;5073773;28;20035;-77
2021/12/30 09:43:36;;;;;;;0.05;0.05;;;;;;;5.56;100.00;98871.09;5074119;28;20039;-78
2021/12/30 09:46:01;;;;;;;0.00;0.00;;;;;;;5.63;100.00;98864.81;5074090;28;20048;-77
2021/12/30 09:48:27;;;;;;;0.00;0.00;;;;;;;5.66;100.00;98869.63;5073340;28;20503;-77
2021/12/30 09:50:54;;;;;;;0.00;0.00;;;;;;;5.71;100.00;98869.69;5073806;28;20028;-77
2021/12/30 09:53:25;;;;;;;0.00;0.00;;;;;;;5.70;100.00;98865.44;5073111;28;20039;-77
2021/12/30 09:55:52;;;;;;;0.00;0.00;;;;;;;5.73;100.00;98865.75;5073757;28;20106;-77
2021/12/30 09:58:18;;;;;;;0.00;0.00;;;;;;;5.66;100.00;98859.81;5073048;28;20074;-77
2021/12/30 10:00:45;;;;;;;0.00;0.00;;;;;;;5.80;100.00;98881.47;5073427;28;20035;-77
2021/12/30 10:03:10;;;;;;;0.00;0.00;;;;;;;5.73;100.00;98867.59;5073128;28;20020;-77
2021/12/30 10:05:39;;;;;;;0.00;0.00;;;;;;;5.87;100.00;98890.06;5073586;28;20066;-77
2021/12/30 10:08:15;;;;;;;0.00;0.00;;;;;;;5.87;100.00;98889.25;5073526;28;20032;-77
2021/12/30 10:10:44;;;;;;;0.00;0.00;;;;;;;5.90;100.00;98888.75;5073552;28;20036;-77
2021/12/30 10:13:20;;;;;;;0.00;0.00;;;;;;;5.92;100.00;98887.44;5073162;28;20399;-77
2021/12/30 10:15:49;;;;;;;0.00;0.00;;;;;;;5.96;100.00;98886.94;5073424;28;20030;-77
2021/12/30 10:18:15;;;;;;;0.00;0.00;;;;;;;5.78;100.00;98867.66;5073029;28;20479;-78
2021/12/30 10:20:42;;;;;;;0.00;0.00;;;;;;;5.94;100.00;98889.84;5073453;28;20507;-77
2021/12/30 10:23:20;;;;;;;0.00;0.00;;;;;;;5.99;100.00;98891.78;5073229;28;20024;-77
2021/12/30 10:25:51;;;;;;;0.98;0.38;;;;;;;6.00;100.00;98894.19;5073404;28;20048;-77
2021/12/30 10:28:23;;;;;;;0.00;0.00;;;;;;;6.05;100.00;98890.78;5072866;28;20477;-78
2021/12/30 10:30:51;;;;;;;0.00;0.00;;;;;;;6.04;100.00;98895.31;5073109;28;20036;-78
2021/12/30 10:33:24;;;;;;;0.40;0.40;;;;;;;6.04;100.00;98894.50;5073032;28;20056;-77
2021/12/30 10:35:52;;;;;;;0.00;0.00;;;;;;;6.14;100.00;98915.03;5073118;28;20443;-78
2021/12/30 10:38:18;;;;;;;0.00;0.00;;;;;;;6.14;100.00;98905.25;5072964;28;20062;-77
2021/12/30 10:40:47;;;;;;;0.00;0.00;;;;;;;6.14;100.00;98904.41;5072915;28;20059;-78
2021/12/30 10:43:37;;;;;;;0.00;0.00;;;;;;;6.09;100.00;98891.88;5072836;28;20024;-77
2021/12/30 10:46:21;;;;;;;0.00;0.00;;;;;;;6.14;100.00;98905.25;5073024;28;20068;-78
2021/12/30 10:48:55;;;;;;;0.20;0.20;;;;;;;6.11;100.00;98894.31;5072635;28;20652;-77
2021/12/30 10:51:33;;;;;;;0.08;0.08;;;;;;;6.18;100.00;98913.50;5072963;28;20052;-77
2021/12/30 10:54:09;;;;;;;0.00;0.00;;;;;;;6.17;100.00;98914.56;5072686;28;20045;-77
2021/12/30 10:56:38;;;;;;;0.00;0.00;;;;;;;6.01;100.00;98895.00;5072640;28;20030;-77
2021/12/30 10:59:12;;;;;;;0.28;0.28;;;;;;;6.16;100.00;98920.91;5072802;28;20032;-76
2021/12/30 11:01:43;;;;;;;0.52;0.52;;;;;;;6.08;100.00;98916.84;5072903;28;20024;-77
2021/12/30 11:04:09;;;;;;;0.00;0.00;;;;;;;6.10;100.00;98925.34;5072889;28;20493;-76
2021/12/30 11:06:35;;;;;;;0.00;0.00;;;;;;;6.10;100.00;98920.03;5072584;28;20024;-76
2021/12/30 11:09:13;;;;;;;0.00;0.00;;;;;;;6.12;100.00;98933.09;5072770;28;20629;-77
2021/12/30 11:11:51;;;;;;;0.00;0.00;;;;;;;6.11;100.00;98932.28;5072955;28;20407;-80
2021/12/30 11:14:18;;;;;;;;;;;;;;;6.09;100.00;98932.53;5058860;28;20048;-78
2021/12/30 11:17:04;;;;;;;0.10;0.10;;;;;;;6.06;100.00;98935.66;5070752;28;19917;-79
2021/12/30 11:19:31;;;;;;;0.00;0.00;;;;;;;6.08;100.00;98927.47;5071942;28;20403;-85
2021/12/30 11:21:59;;;;;;;0.00;0.00;;;;;;;6.09;100.00;98921.91;5072602;28;20024;-81
2021/12/30 11:24:29;;;;;;;0.30;0.30;;;;;;;6.05;100.00;98922.66;5073714;28;20505;-82
2021/12/30 11:26:56;;;;;;;0.00;0.00;;;;;;;6.05;100.00;98923.47;5072811;28;20524;-82
2021/12/30 11:29:22;;;;;;;0.00;0.00;;;;;;;6.14;100.00;98928.31;5057634;28;20388;-82
2021/12/30 11:31:48;;;;;;;0.00;0.00;;;;;;;6.08;100.00;98922.97;5052874;28;20017;-83